sensor_id;sensor_type;location;lat;lon;timestamp;P1;durP1;ratioP1;P2;durP2;ratioP2
65328;SDS011;51941;52.210;5.158;2023-05-07T00:00:19;24.20;;;16.88;;
65328;SDS011;51941;52.210;5.158;2023-05-07T00:02:46;24.50;;;17.13;;
65328;SDS011;51941;52.210;5.158;2023-05-07T00:05:12;20.45;;;16.83;;
65328;SDS011;51941;52.210;5.158;2023-05-07T00:07:39;25.85;;;18.80;;
65328;SDS011;51941;52.210;5.158;2023-05-07T00:10:06;22.30;;;16.80;;
65328;SDS011;51941;52.210;5.158;2023-05-07T00:12:34;19.60;;;15.00;;
65328;SDS011;51941;52.210;5.158;2023-05-07T00:15:03;20.90;;;17.02;;
65328;SDS011;51941;52.210;5.158;2023-05-07T00:17:30;21.00;;;15.27;;
65328;SDS011;51941;52.210;5.158;2023-05-07T00:19:57;15.02;;;12.88;;
65328;SDS011;51941;52.210;5.158;2023-05-07T00:22:24;18.33;;;12.95;;
65328;SDS011;51941;52.210;5.158;2023-05-07T00:24:50;16.33;;;12.45;;
65328;SDS011;51941;52.210;5.158;2023-05-07T00:27:17;14.98;;;12.45;;
65328;SDS011;51941;52.210;5.158;2023-05-07T00:29:44;17.73;;;13.13;;
65328;SDS011;51941;52.210;5.158;2023-05-07T00:32:12;15.57;;;11.43;;
65328;SDS011;51941;52.210;5.158;2023-05-07T00:34:38;16.50;;;13.23;;
65328;SDS011;51941;52.210;5.158;2023-05-07T00:37:05;12.93;;;11.23;;
65328;SDS011;51941;52.210;5.158;2023-05-07T00:39:32;15.93;;;11.80;;
65328;SDS011;51941;52.210;5.158;2023-05-07T00:41:59;14.25;;;10.80;;
65328;SDS011;51941;52.210;5.158;2023-05-07T00:44:26;12.43;;;10.48;;
65328;SDS011;51941;52.210;5.158;2023-05-07T00:46:53;14.02;;;11.57;;
65328;SDS011;51941;52.210;5.158;2023-05-07T00:49:21;13.30;;;10.75;;
65328;SDS011;51941;52.210;5.158;2023-05-07T00:51:51;13.13;;;11.60;;
65328;SDS011;51941;52.210;5.158;2023-05-07T00:54:18;14.27;;;11.75;;
65328;SDS011;51941;52.210;5.158;2023-05-07T00:56:45;11.98;;;10.27;;
65328;SDS011;51941;52.210;5.158;2023-05-07T00:59:12;11.65;;;10.38;;
65328;SDS011;51941;52.210;5.158;2023-05-07T01:01:39;17.23;;;11.07;;
65328;SDS011;51941;52.210;5.158;2023-05-07T01:04:05;10.73;;;9.05;;
65328;SDS011;51941;52.210;5.158;2023-05-07T01:06:33;11.63;;;10.38;;
65328;SDS011;51941;52.210;5.158;2023-05-07T01:09:00;11.13;;;8.85;;
65328;SDS011;51941;52.210;5.158;2023-05-07T01:11:30;11.50;;;9.05;;
65328;SDS011;51941;52.210;5.158;2023-05-07T01:13:57;9.77;;;8.65;;
65328;SDS011;51941;52.210;5.158;2023-05-07T01:16:25;15.23;;;10.82;;
65328;SDS011;51941;52.210;5.158;2023-05-07T01:18:52;12.95;;;10.23;;
65328;SDS011;51941;52.210;5.158;2023-05-07T01:21:19;12.95;;;10.38;;
65328;SDS011;51941;52.210;5.158;2023-05-07T01:23:57;11.45;;;10.05;;
65328;SDS011;51941;52.210;5.158;2023-05-07T01:26:24;11.67;;;8.83;;
65328;SDS011;51941;52.210;5.158;2023-05-07T01:28:51;11.68;;;8.48;;
65328;SDS011;51941;52.210;5.158;2023-05-07T01:31:18;10.48;;;8.38;;
65328;SDS011;51941;52.210;5.158;2023-05-07T01:33:48;11.07;;;9.05;;
65328;SDS011;51941;52.210;5.158;2023-05-07T01:36:18;10.15;;;8.50;;
65328;SDS011;51941;52.210;5.158;2023-05-07T01:38:46;10.45;;;9.15;;
65328;SDS011;51941;52.210;5.158;2023-05-07T01:41:15;11.57;;;9.43;;
65328;SDS011;51941;52.210;5.158;2023-05-07T01:43:42;13.30;;;9.57;;
65328;SDS011;51941;52.210;5.158;2023-05-07T01:46:09;10.68;;;8.95;;
65328;SDS011;51941;52.210;5.158;2023-05-07T01:48:37;11.35;;;9.57;;
65328;SDS011;51941;52.210;5.158;2023-05-07T01:51:04;10.23;;;8.93;;
65328;SDS011;51941;52.210;5.158;2023-05-07T01:53:35;14.85;;;11.05;;
65328;SDS011;51941;52.210;5.158;2023-05-07T01:56:02;11.00;;;9.40;;
65328;SDS011;51941;52.210;5.158;2023-05-07T01:58:31;10.75;;;9.73;;
65328;SDS011;51941;52.210;5.158;2023-05-07T02:00:57;12.75;;;9.98;;
65328;SDS011;51941;52.210;5.158;2023-05-07T02:03:24;11.32;;;9.32;;
65328;SDS011;51941;52.210;5.158;2023-05-07T02:05:59;13.35;;;9.05;;
65328;SDS011;51941;52.210;5.158;2023-05-07T02:08:31;9.20;;;8.18;;
65328;SDS011;51941;52.210;5.158;2023-05-07T02:10:58;12.88;;;8.63;;
65328;SDS011;51941;52.210;5.158;2023-05-07T02:13:25;10.85;;;9.07;;
65328;SDS011;51941;52.210;5.158;2023-05-07T02:15:54;9.88;;;8.48;;
65328;SDS011;51941;52.210;5.158;2023-05-07T02:18:22;8.23;;;7.43;;
65328;SDS011;51941;52.210;5.158;2023-05-07T02:20:49;9.68;;;7.90;;
65328;SDS011;51941;52.210;5.158;2023-05-07T02:23:16;9.60;;;8.38;;
65328;SDS011;51941;52.210;5.158;2023-05-07T02:25:43;8.93;;;7.60;;
65328;SDS011;51941;52.210;5.158;2023-05-07T02:28:10;7.57;;;6.85;;
65328;SDS011;51941;52.210;5.158;2023-05-07T02:31:01;11.23;;;7.63;;
65328;SDS011;51941;52.210;5.158;2023-05-07T02:33:29;9.38;;;7.35;;
65328;SDS011;51941;52.210;5.158;2023-05-07T02:35:56;8.65;;;7.28;;
65328;SDS011;51941;52.210;5.158;2023-05-07T02:38:23;10.50;;;7.50;;
65328;SDS011;51941;52.210;5.158;2023-05-07T02:40:50;9.73;;;7.78;;
65328;SDS011;51941;52.210;5.158;2023-05-07T02:43:16;9.57;;;7.80;;
65328;SDS011;51941;52.210;5.158;2023-05-07T02:45:46;10.13;;;8.90;;
65328;SDS011;51941;52.210;5.158;2023-05-07T02:48:15;11.07;;;8.32;;
65328;SDS011;51941;52.210;5.158;2023-05-07T02:50:42;10.30;;;7.65;;
65328;SDS011;51941;52.210;5.158;2023-05-07T02:53:10;9.17;;;8.27;;
65328;SDS011;51941;52.210;5.158;2023-05-07T02:55:37;9.23;;;8.07;;
65328;SDS011;51941;52.210;5.158;2023-05-07T02:58:04;9.20;;;7.22;;
65328;SDS011;51941;52.210;5.158;2023-05-07T03:03:17;7.80;;;7.07;;
65328;SDS011;51941;52.210;5.158;2023-05-07T03:05:44;9.80;;;7.90;;
65328;SDS011;51941;52.210;5.158;2023-05-07T03:08:11;9.98;;;8.25;;
65328;SDS011;51941;52.210;5.158;2023-05-07T03:10:38;9.43;;;7.90;;
65328;SDS011;51941;52.210;5.158;2023-05-07T03:13:05;10.00;;;8.57;;
65328;SDS011;51941;52.210;5.158;2023-05-07T03:15:32;8.32;;;7.53;;
65328;SDS011;51941;52.210;5.158;2023-05-07T03:17:58;10.93;;;8.27;;
65328;SDS011;51941;52.210;5.158;2023-05-07T03:20:26;8.85;;;7.88;;
65328;SDS011;51941;52.210;5.158;2023-05-07T03:22:54;9.03;;;7.73;;
65328;SDS011;51941;52.210;5.158;2023-05-07T03:25:21;10.45;;;8.43;;
65328;SDS011;51941;52.210;5.158;2023-05-07T03:27:47;11.90;;;8.73;;
65328;SDS011;51941;52.210;5.158;2023-05-07T03:30:17;9.60;;;7.60;;
65328;SDS011;51941;52.210;5.158;2023-05-07T03:32:45;10.77;;;8.65;;
65328;SDS011;51941;52.210;5.158;2023-05-07T03:35:12;10.18;;;8.80;;
65328;SDS011;51941;52.210;5.158;2023-05-07T03:37:41;11.43;;;8.80;;
65328;SDS011;51941;52.210;5.158;2023-05-07T03:40:09;10.35;;;8.65;;
65328;SDS011;51941;52.210;5.158;2023-05-07T03:42:43;9.48;;;8.48;;
65328;SDS011;51941;52.210;5.158;2023-05-07T03:45:11;9.63;;;8.48;;
65328;SDS011;51941;52.210;5.158;2023-05-07T03:47:42;10.63;;;9.52;;
65328;SDS011;51941;52.210;5.158;2023-05-07T03:52:38;9.30;;;8.40;;
65328;SDS011;51941;52.210;5.158;2023-05-07T03:55:09;10.07;;;9.07;;
65328;SDS011;51941;52.210;5.158;2023-05-07T03:57:38;11.57;;;9.63;;
65328;SDS011;51941;52.210;5.158;2023-05-07T04:00:05;11.75;;;9.52;;
65328;SDS011;51941;52.210;5.158;2023-05-07T04:02:45;13.57;;;10.85;;
65328;SDS011;51941;52.210;5.158;2023-05-07T04:05:14;12.15;;;10.63;;
65328;SDS011;51941;52.210;5.158;2023-05-07T04:07:43;12.37;;;10.50;;
65328;SDS011;51941;52.210;5.158;2023-05-07T04:10:14;12.80;;;10.35;;
65328;SDS011;51941;52.210;5.158;2023-05-07T04:12:43;13.55;;;10.57;;
65328;SDS011;51941;52.210;5.158;2023-05-07T04:15:15;15.23;;;11.68;;
65328;SDS011;51941;52.210;5.158;2023-05-07T04:17:42;16.27;;;11.70;;
65328;SDS011;51941;52.210;5.158;2023-05-07T04:20:13;11.77;;;10.67;;
65328;SDS011;51941;52.210;5.158;2023-05-07T04:22:43;14.88;;;10.82;;
65328;SDS011;51941;52.210;5.158;2023-05-07T04:25:10;13.13;;;11.25;;
65328;SDS011;51941;52.210;5.158;2023-05-07T04:27:38;14.25;;;11.65;;
65328;SDS011;51941;52.210;5.158;2023-05-07T04:30:05;13.60;;;11.05;;
65328;SDS011;51941;52.210;5.158;2023-05-07T04:32:37;12.15;;;10.38;;
65328;SDS011;51941;52.210;5.158;2023-05-07T04:35:04;12.90;;;11.52;;
65328;SDS011;51941;52.210;5.158;2023-05-07T04:37:33;13.95;;;10.88;;
65328;SDS011;51941;52.210;5.158;2023-05-07T04:40:01;12.32;;;11.02;;
65328;SDS011;51941;52.210;5.158;2023-05-07T04:42:28;12.40;;;10.70;;
65328;SDS011;51941;52.210;5.158;2023-05-07T04:44:56;12.70;;;11.35;;
65328;SDS011;51941;52.210;5.158;2023-05-07T04:47:24;14.07;;;12.52;;
65328;SDS011;51941;52.210;5.158;2023-05-07T04:49:51;12.48;;;11.23;;
65328;SDS011;51941;52.210;5.158;2023-05-07T04:52:18;12.35;;;11.05;;
65328;SDS011;51941;52.210;5.158;2023-05-07T04:54:45;13.95;;;12.43;;
65328;SDS011;51941;52.210;5.158;2023-05-07T04:57:12;13.48;;;11.15;;
65328;SDS011;51941;52.210;5.158;2023-05-07T04:59:40;15.15;;;11.55;;
65328;SDS011;51941;52.210;5.158;2023-05-07T05:02:09;12.25;;;10.93;;
65328;SDS011;51941;52.210;5.158;2023-05-07T05:04:36;13.02;;;10.45;;
65328;SDS011;51941;52.210;5.158;2023-05-07T05:07:03;12.07;;;10.20;;
65328;SDS011;51941;52.210;5.158;2023-05-07T05:09:30;11.25;;;10.05;;
65328;SDS011;51941;52.210;5.158;2023-05-07T05:11:57;11.10;;;10.00;;
65328;SDS011;51941;52.210;5.158;2023-05-07T05:14:24;10.68;;;9.57;;
65328;SDS011;51941;52.210;5.158;2023-05-07T05:16:51;11.05;;;9.65;;
65328;SDS011;51941;52.210;5.158;2023-05-07T05:19:19;12.38;;;9.82;;
65328;SDS011;51941;52.210;5.158;2023-05-07T05:21:46;11.93;;;10.00;;
65328;SDS011;51941;52.210;5.158;2023-05-07T05:24:13;12.32;;;9.88;;
65328;SDS011;51941;52.210;5.158;2023-05-07T05:26:40;13.65;;;10.40;;
65328;SDS011;51941;52.210;5.158;2023-05-07T05:29:07;12.98;;;9.70;;
65328;SDS011;51941;52.210;5.158;2023-05-07T05:31:35;10.70;;;9.50;;
65328;SDS011;51941;52.210;5.158;2023-05-07T05:34:02;11.05;;;10.00;;
65328;SDS011;51941;52.210;5.158;2023-05-07T05:36:30;11.60;;;10.05;;
65328;SDS011;51941;52.210;5.158;2023-05-07T05:38:57;11.77;;;10.13;;
65328;SDS011;51941;52.210;5.158;2023-05-07T05:41:24;10.55;;;8.70;;
65328;SDS011;51941;52.210;5.158;2023-05-07T05:43:52;10.25;;;9.02;;
65328;SDS011;51941;52.210;5.158;2023-05-07T05:46:19;10.52;;;9.27;;
65328;SDS011;51941;52.210;5.158;2023-05-07T05:48:49;13.98;;;10.60;;
65328;SDS011;51941;52.210;5.158;2023-05-07T05:51:16;12.57;;;10.00;;
65328;SDS011;51941;52.210;5.158;2023-05-07T05:53:45;12.25;;;10.23;;
65328;SDS011;51941;52.210;5.158;2023-05-07T05:56:12;12.15;;;10.52;;
65328;SDS011;51941;52.210;5.158;2023-05-07T05:58:40;12.63;;;10.77;;
65328;SDS011;51941;52.210;5.158;2023-05-07T06:01:07;11.85;;;10.10;;
65328;SDS011;51941;52.210;5.158;2023-05-07T06:03:36;13.90;;;10.55;;
65328;SDS011;51941;52.210;5.158;2023-05-07T06:06:10;13.35;;;10.23;;
65328;SDS011;51941;52.210;5.158;2023-05-07T06:08:36;12.43;;;10.32;;
65328;SDS011;51941;52.210;5.158;2023-05-07T06:11:04;12.95;;;9.85;;
65328;SDS011;51941;52.210;5.158;2023-05-07T06:13:34;12.73;;;10.48;;
65328;SDS011;51941;52.210;5.158;2023-05-07T06:16:01;11.25;;;10.05;;
65328;SDS011;51941;52.210;5.158;2023-05-07T06:18:28;11.45;;;9.40;;
65328;SDS011;51941;52.210;5.158;2023-05-07T06:20:55;12.30;;;10.00;;
65328;SDS011;51941;52.210;5.158;2023-05-07T06:23:26;16.05;;;10.75;;
65328;SDS011;51941;52.210;5.158;2023-05-07T06:25:53;12.60;;;9.45;;
65328;SDS011;51941;52.210;5.158;2023-05-07T06:28:25;13.80;;;10.98;;
65328;SDS011;51941;52.210;5.158;2023-05-07T06:30:53;18.33;;;10.55;;
65328;SDS011;51941;52.210;5.158;2023-05-07T06:33:19;14.77;;;10.75;;
65328;SDS011;51941;52.210;5.158;2023-05-07T06:35:46;15.43;;;10.63;;
65328;SDS011;51941;52.210;5.158;2023-05-07T06:38:13;16.10;;;12.35;;
65328;SDS011;51941;52.210;5.158;2023-05-07T06:40:41;14.20;;;11.27;;
65328;SDS011;51941;52.210;5.158;2023-05-07T06:43:08;15.57;;;12.23;;
65328;SDS011;51941;52.210;5.158;2023-05-07T06:45:47;11.15;;;9.85;;
65328;SDS011;51941;52.210;5.158;2023-05-07T06:48:14;14.43;;;10.75;;
65328;SDS011;51941;52.210;5.158;2023-05-07T06:50:57;12.88;;;10.88;;
65328;SDS011;51941;52.210;5.158;2023-05-07T06:53:25;12.60;;;9.40;;
65328;SDS011;51941;52.210;5.158;2023-05-07T06:55:53;13.02;;;10.48;;
65328;SDS011;51941;52.210;5.158;2023-05-07T06:58:20;11.93;;;10.70;;
65328;SDS011;51941;52.210;5.158;2023-05-07T07:00:48;11.40;;;9.90;;
65328;SDS011;51941;52.210;5.158;2023-05-07T07:03:15;15.95;;;12.27;;
65328;SDS011;51941;52.210;5.158;2023-05-07T07:05:42;13.68;;;11.30;;
65328;SDS011;51941;52.210;5.158;2023-05-07T07:08:09;13.45;;;11.10;;
65328;SDS011;51941;52.210;5.158;2023-05-07T07:10:36;15.40;;;11.30;;
65328;SDS011;51941;52.210;5.158;2023-05-07T07:13:03;19.92;;;13.93;;
65328;SDS011;51941;52.210;5.158;2023-05-07T07:15:30;13.80;;;11.68;;
65328;SDS011;51941;52.210;5.158;2023-05-07T07:17:58;15.05;;;11.00;;
65328;SDS011;51941;52.210;5.158;2023-05-07T07:20:25;12.10;;;10.90;;
65328;SDS011;51941;52.210;5.158;2023-05-07T07:22:52;12.55;;;11.10;;
65328;SDS011;51941;52.210;5.158;2023-05-07T07:25:20;14.13;;;11.70;;
65328;SDS011;51941;52.210;5.158;2023-05-07T07:27:48;13.63;;;12.00;;
65328;SDS011;51941;52.210;5.158;2023-05-07T07:30:15;14.77;;;11.45;;
65328;SDS011;51941;52.210;5.158;2023-05-07T07:32:45;13.10;;;11.70;;
65328;SDS011;51941;52.210;5.158;2023-05-07T07:35:13;13.23;;;11.93;;
65328;SDS011;51941;52.210;5.158;2023-05-07T07:37:40;13.13;;;10.38;;
65328;SDS011;51941;52.210;5.158;2023-05-07T07:40:08;12.15;;;10.68;;
65328;SDS011;51941;52.210;5.158;2023-05-07T07:42:36;15.52;;;13.05;;
65328;SDS011;51941;52.210;5.158;2023-05-07T07:45:03;12.70;;;11.40;;
65328;SDS011;51941;52.210;5.158;2023-05-07T07:47:33;13.52;;;12.02;;
65328;SDS011;51941;52.210;5.158;2023-05-07T07:50:01;13.75;;;12.27;;
65328;SDS011;51941;52.210;5.158;2023-05-07T07:52:29;12.70;;;10.98;;
65328;SDS011;51941;52.210;5.158;2023-05-07T07:54:56;19.40;;;12.35;;
65328;SDS011;51941;52.210;5.158;2023-05-07T07:57:23;12.88;;;10.98;;
65328;SDS011;51941;52.210;5.158;2023-05-07T07:59:50;14.73;;;11.98;;
65328;SDS011;51941;52.210;5.158;2023-05-07T08:02:18;12.55;;;10.57;;
65328;SDS011;51941;52.210;5.158;2023-05-07T08:04:45;14.55;;;12.93;;
65328;SDS011;51941;52.210;5.158;2023-05-07T08:07:12;14.70;;;12.15;;
65328;SDS011;51941;52.210;5.158;2023-05-07T08:09:43;13.95;;;12.45;;
65328;SDS011;51941;52.210;5.158;2023-05-07T08:12:10;14.13;;;12.67;;
65328;SDS011;51941;52.210;5.158;2023-05-07T08:14:38;15.82;;;12.50;;
65328;SDS011;51941;52.210;5.158;2023-05-07T08:17:06;15.00;;;12.50;;
65328;SDS011;51941;52.210;5.158;2023-05-07T08:19:35;13.57;;;12.17;;
65328;SDS011;51941;52.210;5.158;2023-05-07T08:22:03;13.77;;;12.23;;
65328;SDS011;51941;52.210;5.158;2023-05-07T08:24:31;13.98;;;12.25;;
65328;SDS011;51941;52.210;5.158;2023-05-07T08:26:59;13.93;;;12.40;;
65328;SDS011;51941;52.210;5.158;2023-05-07T08:29:26;13.75;;;12.35;;
65328;SDS011;51941;52.210;5.158;2023-05-07T08:31:53;14.27;;;12.60;;
65328;SDS011;51941;52.210;5.158;2023-05-07T08:34:21;14.20;;;12.45;;
65328;SDS011;51941;52.210;5.158;2023-05-07T08:36:49;13.32;;;11.77;;
65328;SDS011;51941;52.210;5.158;2023-05-07T08:39:20;15.35;;;12.77;;
65328;SDS011;51941;52.210;5.158;2023-05-07T08:41:49;12.82;;;11.40;;
65328;SDS011;51941;52.210;5.158;2023-05-07T08:44:22;14.82;;;12.88;;
65328;SDS011;51941;52.210;5.158;2023-05-07T08:46:53;14.65;;;12.13;;
65328;SDS011;51941;52.210;5.158;2023-05-07T08:49:23;15.15;;;12.50;;
65328;SDS011;51941;52.210;5.158;2023-05-07T08:51:51;17.20;;;13.57;;
65328;SDS011;51941;52.210;5.158;2023-05-07T08:54:19;13.75;;;11.80;;
65328;SDS011;51941;52.210;5.158;2023-05-07T08:56:47;15.10;;;12.20;;
65328;SDS011;51941;52.210;5.158;2023-05-07T08:59:15;13.57;;;10.90;;
65328;SDS011;51941;52.210;5.158;2023-05-07T09:01:44;10.70;;;9.57;;
65328;SDS011;51941;52.210;5.158;2023-05-07T09:04:12;10.32;;;9.32;;
65328;SDS011;51941;52.210;5.158;2023-05-07T09:06:39;10.85;;;9.05;;
65328;SDS011;51941;52.210;5.158;2023-05-07T09:11:36;11.43;;;9.45;;
65328;SDS011;51941;52.210;5.158;2023-05-07T09:14:03;12.77;;;9.52;;
65328;SDS011;51941;52.210;5.158;2023-05-07T09:16:35;10.80;;;9.30;;
65328;SDS011;51941;52.210;5.158;2023-05-07T09:19:04;9.30;;;7.88;;
65328;SDS011;51941;52.210;5.158;2023-05-07T09:21:31;11.55;;;10.10;;
65328;SDS011;51941;52.210;5.158;2023-05-07T09:24:00;10.40;;;8.88;;
65328;SDS011;51941;52.210;5.158;2023-05-07T09:26:33;13.05;;;9.85;;
65328;SDS011;51941;52.210;5.158;2023-05-07T09:29:02;10.70;;;9.60;;
65328;SDS011;51941;52.210;5.158;2023-05-07T09:31:29;10.23;;;9.23;;
65328;SDS011;51941;52.210;5.158;2023-05-07T09:33:55;9.57;;;8.52;;
65328;SDS011;51941;52.210;5.158;2023-05-07T09:36:28;8.40;;;7.35;;
65328;SDS011;51941;52.210;5.158;2023-05-07T09:38:55;10.45;;;7.57;;
65328;SDS011;51941;52.210;5.158;2023-05-07T09:41:23;10.07;;;8.57;;
65328;SDS011;51941;52.210;5.158;2023-05-07T09:43:58;11.65;;;8.18;;
65328;SDS011;51941;52.210;5.158;2023-05-07T09:46:30;10.80;;;8.73;;
65328;SDS011;51941;52.210;5.158;2023-05-07T09:49:04;6.75;;;6.10;;
65328;SDS011;51941;52.210;5.158;2023-05-07T09:51:38;8.98;;;6.13;;
65328;SDS011;51941;52.210;5.158;2023-05-07T09:54:09;7.43;;;6.72;;
65328;SDS011;51941;52.210;5.158;2023-05-07T09:59:07;8.60;;;7.78;;
65328;SDS011;51941;52.210;5.158;2023-05-07T10:01:37;8.48;;;7.65;;
65328;SDS011;51941;52.210;5.158;2023-05-07T10:04:07;7.85;;;7.00;;
65328;SDS011;51941;52.210;5.158;2023-05-07T10:06:34;9.80;;;7.15;;
65328;SDS011;51941;52.210;5.158;2023-05-07T10:09:04;7.30;;;6.57;;
65328;SDS011;51941;52.210;5.158;2023-05-07T10:11:32;8.52;;;6.35;;
65328;SDS011;51941;52.210;5.158;2023-05-07T10:13:59;7.68;;;6.30;;
65328;SDS011;51941;52.210;5.158;2023-05-07T10:16:29;8.32;;;6.20;;
65328;SDS011;51941;52.210;5.158;2023-05-07T10:18:58;12.98;;;10.40;;
65328;SDS011;51941;52.210;5.158;2023-05-07T10:21:26;8.48;;;6.70;;
65328;SDS011;51941;52.210;5.158;2023-05-07T10:23:58;7.05;;;6.18;;
65328;SDS011;51941;52.210;5.158;2023-05-07T10:26:29;6.50;;;5.82;;
65328;SDS011;51941;52.210;5.158;2023-05-07T10:28:59;6.72;;;6.13;;
65328;SDS011;51941;52.210;5.158;2023-05-07T10:31:36;8.20;;;5.82;;
65328;SDS011;51941;52.210;5.158;2023-05-07T10:34:18;6.78;;;6.07;;
65328;SDS011;51941;52.210;5.158;2023-05-07T10:36:49;8.02;;;5.78;;
65328;SDS011;51941;52.210;5.158;2023-05-07T10:39:18;8.30;;;5.22;;
65328;SDS011;51941;52.210;5.158;2023-05-07T10:41:48;7.70;;;6.28;;
65328;SDS011;51941;52.210;5.158;2023-05-07T10:44:24;8.25;;;6.60;;
65328;SDS011;51941;52.210;5.158;2023-05-07T10:47:05;8.70;;;7.88;;
65328;SDS011;51941;52.210;5.158;2023-05-07T10:49:35;7.40;;;6.50;;
65328;SDS011;51941;52.210;5.158;2023-05-07T10:52:13;8.93;;;7.03;;
65328;SDS011;51941;52.210;5.158;2023-05-07T10:55:18;9.48;;;7.25;;
65328;SDS011;51941;52.210;5.158;2023-05-07T10:58:29;7.30;;;6.00;;
65328;SDS011;51941;52.210;5.158;2023-05-07T11:01:48;8.20;;;6.03;;
65328;SDS011;51941;52.210;5.158;2023-05-07T11:04:20;7.82;;;5.40;;
65328;SDS011;51941;52.210;5.158;2023-05-07T11:10:13;6.85;;;3.58;;
65328;SDS011;51941;52.210;5.158;2023-05-07T11:12:51;4.38;;;3.53;;
65328;SDS011;51941;52.210;5.158;2023-05-07T11:15:39;4.32;;;2.83;;
65328;SDS011;51941;52.210;5.158;2023-05-07T11:18:45;3.97;;;2.30;;
65328;SDS011;51941;52.210;5.158;2023-05-07T11:21:15;5.60;;;2.35;;
65328;SDS011;51941;52.210;5.158;2023-05-07T11:24:05;3.00;;;2.10;;
65328;SDS011;51941;52.210;5.158;2023-05-07T11:26:53;5.00;;;2.38;;
65328;SDS011;51941;52.210;5.158;2023-05-07T11:29:23;4.57;;;2.40;;
65328;SDS011;51941;52.210;5.158;2023-05-07T11:31:57;4.88;;;3.00;;
65328;SDS011;51941;52.210;5.158;2023-05-07T11:34:30;8.10;;;3.63;;
65328;SDS011;51941;52.210;5.158;2023-05-07T11:36:58;6.85;;;2.67;;
65328;SDS011;51941;52.210;5.158;2023-05-07T11:39:38;4.85;;;2.50;;
65328;SDS011;51941;52.210;5.158;2023-05-07T11:42:05;6.45;;;3.00;;
65328;SDS011;51941;52.210;5.158;2023-05-07T11:44:42;5.50;;;3.00;;
65328;SDS011;51941;52.210;5.158;2023-05-07T11:47:12;6.43;;;2.83;;
65328;SDS011;51941;52.210;5.158;2023-05-07T11:49:45;4.85;;;2.30;;
65328;SDS011;51941;52.210;5.158;2023-05-07T11:52:13;5.30;;;2.43;;
65328;SDS011;51941;52.210;5.158;2023-05-07T11:54:39;5.80;;;2.58;;
65328;SDS011;51941;52.210;5.158;2023-05-07T11:57:06;3.55;;;2.20;;
65328;SDS011;51941;52.210;5.158;2023-05-07T11:59:40;3.53;;;2.25;;
65328;SDS011;51941;52.210;5.158;2023-05-07T12:02:09;3.38;;;1.70;;
65328;SDS011;51941;52.210;5.158;2023-05-07T12:04:38;3.85;;;1.90;;
65328;SDS011;51941;52.210;5.158;2023-05-07T12:07:05;4.82;;;1.80;;
65328;SDS011;51941;52.210;5.158;2023-05-07T12:09:32;3.38;;;1.80;;
65328;SDS011;51941;52.210;5.158;2023-05-07T12:12:02;3.95;;;1.42;;
65328;SDS011;51941;52.210;5.158;2023-05-07T12:14:30;6.25;;;2.20;;
65328;SDS011;51941;52.210;5.158;2023-05-07T12:16:57;4.82;;;1.70;;
65328;SDS011;51941;52.210;5.158;2023-05-07T12:19:27;4.35;;;2.20;;
65328;SDS011;51941;52.210;5.158;2023-05-07T12:21:56;4.68;;;2.22;;
65328;SDS011;51941;52.210;5.158;2023-05-07T12:24:23;6.23;;;1.77;;
65328;SDS011;51941;52.210;5.158;2023-05-07T12:26:49;4.55;;;2.28;;
65328;SDS011;51941;52.210;5.158;2023-05-07T12:29:16;3.08;;;1.70;;
65328;SDS011;51941;52.210;5.158;2023-05-07T12:31:44;5.57;;;2.30;;
65328;SDS011;51941;52.210;5.158;2023-05-07T12:34:10;4.45;;;2.30;;
65328;SDS011;51941;52.210;5.158;2023-05-07T12:36:37;4.78;;;2.67;;
65328;SDS011;51941;52.210;5.158;2023-05-07T12:39:06;4.47;;;2.53;;
65328;SDS011;51941;52.210;5.158;2023-05-07T12:41:36;4.28;;;2.28;;
65328;SDS011;51941;52.210;5.158;2023-05-07T12:44:17;6.30;;;2.60;;
65328;SDS011;51941;52.210;5.158;2023-05-07T12:46:44;4.32;;;2.80;;
65328;SDS011;51941;52.210;5.158;2023-05-07T12:49:12;3.67;;;2.97;;
65328;SDS011;51941;52.210;5.158;2023-05-07T12:51:39;6.07;;;3.00;;
65328;SDS011;51941;52.210;5.158;2023-05-07T12:54:07;4.97;;;2.95;;
65328;SDS011;51941;52.210;5.158;2023-05-07T12:56:35;4.32;;;2.78;;
65328;SDS011;51941;52.210;5.158;2023-05-07T12:59:02;4.57;;;2.60;;
65328;SDS011;51941;52.210;5.158;2023-05-07T13:01:29;6.50;;;3.20;;
65328;SDS011;51941;52.210;5.158;2023-05-07T13:04:00;6.15;;;3.13;;
65328;SDS011;51941;52.210;5.158;2023-05-07T13:06:27;3.05;;;2.53;;
65328;SDS011;51941;52.210;5.158;2023-05-07T13:08:53;4.88;;;2.75;;
65328;SDS011;51941;52.210;5.158;2023-05-07T13:11:21;4.88;;;3.15;;
65328;SDS011;51941;52.210;5.158;2023-05-07T13:13:48;5.05;;;2.50;;
65328;SDS011;51941;52.210;5.158;2023-05-07T13:16:15;6.60;;;3.50;;
65328;SDS011;51941;52.210;5.158;2023-05-07T13:18:42;4.68;;;2.80;;
65328;SDS011;51941;52.210;5.158;2023-05-07T13:21:10;3.80;;;2.60;;
65328;SDS011;51941;52.210;5.158;2023-05-07T13:23:38;6.53;;;2.90;;
65328;SDS011;51941;52.210;5.158;2023-05-07T13:26:06;7.57;;;2.80;;
65328;SDS011;51941;52.210;5.158;2023-05-07T13:28:34;5.75;;;3.10;;
65328;SDS011;51941;52.210;5.158;2023-05-07T13:31:01;3.72;;;2.72;;
65328;SDS011;51941;52.210;5.158;2023-05-07T13:33:27;4.18;;;3.05;;
65328;SDS011;51941;52.210;5.158;2023-05-07T13:35:54;4.40;;;3.70;;
65328;SDS011;51941;52.210;5.158;2023-05-07T13:38:22;7.20;;;4.50;;
65328;SDS011;51941;52.210;5.158;2023-05-07T13:40:48;7.93;;;5.57;;
65328;SDS011;51941;52.210;5.158;2023-05-07T13:43:15;5.97;;;4.80;;
65328;SDS011;51941;52.210;5.158;2023-05-07T13:45:44;8.95;;;4.78;;
65328;SDS011;51941;52.210;5.158;2023-05-07T13:48:10;7.05;;;5.10;;
65328;SDS011;51941;52.210;5.158;2023-05-07T13:50:37;7.97;;;5.90;;
65328;SDS011;51941;52.210;5.158;2023-05-07T13:53:03;7.68;;;5.93;;
65328;SDS011;51941;52.210;5.158;2023-05-07T13:55:30;9.48;;;6.55;;
65328;SDS011;51941;52.210;5.158;2023-05-07T13:57:57;7.97;;;6.10;;
65328;SDS011;51941;52.210;5.158;2023-05-07T14:00:25;8.75;;;6.00;;
65328;SDS011;51941;52.210;5.158;2023-05-07T14:02:53;8.13;;;6.18;;
65328;SDS011;51941;52.210;5.158;2023-05-07T14:05:20;6.95;;;5.35;;
65328;SDS011;51941;52.210;5.158;2023-05-07T14:07:48;8.55;;;6.15;;
65328;SDS011;51941;52.210;5.158;2023-05-07T14:10:16;8.30;;;5.87;;
65328;SDS011;51941;52.210;5.158;2023-05-07T14:12:43;9.70;;;6.70;;
65328;SDS011;51941;52.210;5.158;2023-05-07T14:15:12;8.93;;;6.07;;
65328;SDS011;51941;52.210;5.158;2023-05-07T14:17:39;6.70;;;5.07;;
65328;SDS011;51941;52.210;5.158;2023-05-07T14:20:08;7.20;;;4.90;;
65328;SDS011;51941;52.210;5.158;2023-05-07T14:22:36;7.82;;;4.65;;
65328;SDS011;51941;52.210;5.158;2023-05-07T14:25:03;5.70;;;4.43;;
65328;SDS011;51941;52.210;5.158;2023-05-07T14:27:30;6.72;;;5.60;;
65328;SDS011;51941;52.210;5.158;2023-05-07T14:29:56;9.02;;;6.18;;
65328;SDS011;51941;52.210;5.158;2023-05-07T14:32:23;10.63;;;6.80;;
65328;SDS011;51941;52.210;5.158;2023-05-07T14:34:50;12.10;;;5.25;;
65328;SDS011;51941;52.210;5.158;2023-05-07T14:37:18;11.07;;;4.13;;
65328;SDS011;51941;52.210;5.158;2023-05-07T14:39:45;4.80;;;2.90;;
65328;SDS011;51941;52.210;5.158;2023-05-07T14:42:11;5.82;;;2.60;;
65328;SDS011;51941;52.210;5.158;2023-05-07T14:44:38;7.35;;;3.08;;
65328;SDS011;51941;52.210;5.158;2023-05-07T14:47:06;5.80;;;2.50;;
65328;SDS011;51941;52.210;5.158;2023-05-07T14:49:33;10.60;;;3.75;;
65328;SDS011;51941;52.210;5.158;2023-05-07T14:52:00;10.93;;;5.20;;
65328;SDS011;51941;52.210;5.158;2023-05-07T14:54:28;17.85;;;5.78;;
65328;SDS011;51941;52.210;5.158;2023-05-07T14:56:55;17.40;;;10.90;;